sensor_id;sensor_type;location;lat;lon;timestamp;P1;durP1;ratioP1;P2;durP2;ratioP2
68250;SDS011;55066;51.560;4.642;2023-04-24T00:02:22;16.50;;;7.13;;
68250;SDS011;55066;51.560;4.642;2023-04-24T00:04:48;18.55;;;8.20;;
68250;SDS011;55066;51.560;4.642;2023-04-24T00:07:14;16.77;;;7.88;;
68250;SDS011;55066;51.560;4.642;2023-04-24T00:09:42;18.13;;;7.90;;
68250;SDS011;55066;51.560;4.642;2023-04-24T00:12:08;19.10;;;8.13;;
68250;SDS011;55066;51.560;4.642;2023-04-24T00:14:34;17.35;;;8.55;;
68250;SDS011;55066;51.560;4.642;2023-04-24T00:17:00;19.02;;;8.50;;
68250;SDS011;55066;51.560;4.642;2023-04-24T00:19:27;21.00;;;9.30;;
68250;SDS011;55066;51.560;4.642;2023-04-24T00:21:53;21.38;;;8.77;;
68250;SDS011;55066;51.560;4.642;2023-04-24T00:24:19;28.65;;;10.13;;
68250;SDS011;55066;51.560;4.642;2023-04-24T00:26:45;19.37;;;9.00;;
68250;SDS011;55066;51.560;4.642;2023-04-24T00:29:11;21.10;;;9.48;;
68250;SDS011;55066;51.560;4.642;2023-04-24T00:31:39;18.40;;;7.77;;
68250;SDS011;55066;51.560;4.642;2023-04-24T00:34:13;18.67;;;7.53;;
68250;SDS011;55066;51.560;4.642;2023-04-24T00:36:38;16.67;;;7.63;;
68250;SDS011;55066;51.560;4.642;2023-04-24T00:39:04;16.23;;;7.10;;
68250;SDS011;55066;51.560;4.642;2023-04-24T00:41:30;14.07;;;6.30;;
68250;SDS011;55066;51.560;4.642;2023-04-24T00:43:55;10.07;;;4.80;;
68250;SDS011;55066;51.560;4.642;2023-04-24T00:46:21;14.13;;;5.20;;
68250;SDS011;55066;51.560;4.642;2023-04-24T00:48:47;10.60;;;4.88;;
68250;SDS011;55066;51.560;4.642;2023-04-24T00:51:13;13.05;;;5.45;;
68250;SDS011;55066;51.560;4.642;2023-04-24T00:53:38;13.60;;;5.80;;
68250;SDS011;55066;51.560;4.642;2023-04-24T00:56:04;17.60;;;8.10;;
68250;SDS011;55066;51.560;4.642;2023-04-24T00:58:30;19.85;;;8.32;;
68250;SDS011;55066;51.560;4.642;2023-04-24T01:00:56;17.30;;;7.65;;
68250;SDS011;55066;51.560;4.642;2023-04-24T01:03:24;20.80;;;9.35;;
68250;SDS011;55066;51.560;4.642;2023-04-24T01:05:52;18.27;;;8.30;;
68250;SDS011;55066;51.560;4.642;2023-04-24T01:08:19;24.95;;;11.48;;
68250;SDS011;55066;51.560;4.642;2023-04-24T01:10:47;20.10;;;9.52;;
68250;SDS011;55066;51.560;4.642;2023-04-24T01:13:13;23.55;;;10.30;;
68250;SDS011;55066;51.560;4.642;2023-04-24T01:15:39;20.85;;;9.70;;
68250;SDS011;55066;51.560;4.642;2023-04-24T01:18:06;20.85;;;9.48;;
68250;SDS011;55066;51.560;4.642;2023-04-24T01:20:32;23.60;;;11.15;;
68250;SDS011;55066;51.560;4.642;2023-04-24T01:22:58;21.08;;;9.25;;
68250;SDS011;55066;51.560;4.642;2023-04-24T01:25:24;25.17;;;10.48;;
68250;SDS011;55066;51.560;4.642;2023-04-24T01:27:51;25.58;;;10.43;;
68250;SDS011;55066;51.560;4.642;2023-04-24T01:30:16;25.57;;;10.80;;
68250;SDS011;55066;51.560;4.642;2023-04-24T01:32:42;20.20;;;9.43;;
68250;SDS011;55066;51.560;4.642;2023-04-24T01:35:09;19.17;;;8.85;;
68250;SDS011;55066;51.560;4.642;2023-04-24T01:37:35;21.35;;;8.38;;
68250;SDS011;55066;51.560;4.642;2023-04-24T01:40:03;21.58;;;9.05;;
68250;SDS011;55066;51.560;4.642;2023-04-24T01:42:30;21.30;;;8.50;;
68250;SDS011;55066;51.560;4.642;2023-04-24T01:44:56;24.75;;;9.00;;
68250;SDS011;55066;51.560;4.642;2023-04-24T01:47:22;20.15;;;8.00;;
68250;SDS011;55066;51.560;4.642;2023-04-24T01:49:49;17.23;;;7.40;;
68250;SDS011;55066;51.560;4.642;2023-04-24T01:52:15;18.25;;;7.93;;
68250;SDS011;55066;51.560;4.642;2023-04-24T01:54:41;21.45;;;8.05;;
68250;SDS011;55066;51.560;4.642;2023-04-24T01:57:07;18.30;;;7.23;;
68250;SDS011;55066;51.560;4.642;2023-04-24T01:59:40;21.42;;;7.10;;
68250;SDS011;55066;51.560;4.642;2023-04-24T02:02:05;18.73;;;7.67;;
68250;SDS011;55066;51.560;4.642;2023-04-24T02:04:31;17.20;;;7.40;;
68250;SDS011;55066;51.560;4.642;2023-04-24T02:06:57;15.18;;;6.82;;
68250;SDS011;55066;51.560;4.642;2023-04-24T02:09:23;18.13;;;6.78;;
68250;SDS011;55066;51.560;4.642;2023-04-24T02:11:49;18.23;;;6.40;;
68250;SDS011;55066;51.560;4.642;2023-04-24T02:14:16;14.88;;;6.43;;
68250;SDS011;55066;51.560;4.642;2023-04-24T02:16:41;12.60;;;5.90;;
68250;SDS011;55066;51.560;4.642;2023-04-24T02:19:07;12.27;;;4.75;;
68250;SDS011;55066;51.560;4.642;2023-04-24T02:21:33;13.77;;;5.63;;
68250;SDS011;55066;51.560;4.642;2023-04-24T02:23:58;12.88;;;5.65;;
68250;SDS011;55066;51.560;4.642;2023-04-24T02:26:24;14.30;;;5.53;;
68250;SDS011;55066;51.560;4.642;2023-04-24T02:28:50;14.57;;;5.93;;
68250;SDS011;55066;51.560;4.642;2023-04-24T02:31:18;12.80;;;5.45;;
68250;SDS011;55066;51.560;4.642;2023-04-24T02:33:43;12.60;;;5.00;;
68250;SDS011;55066;51.560;4.642;2023-04-24T02:36:09;12.10;;;5.17;;
68250;SDS011;55066;51.560;4.642;2023-04-24T02:38:34;14.60;;;5.77;;
68250;SDS011;55066;51.560;4.642;2023-04-24T02:41:00;13.13;;;5.40;;
68250;SDS011;55066;51.560;4.642;2023-04-24T02:43:26;13.27;;;4.93;;
68250;SDS011;55066;51.560;4.642;2023-04-24T02:45:52;11.68;;;4.20;;
68250;SDS011;55066;51.560;4.642;2023-04-24T02:48:18;9.97;;;4.30;;
68250;SDS011;55066;51.560;4.642;2023-04-24T02:50:45;11.68;;;4.85;;
68250;SDS011;55066;51.560;4.642;2023-04-24T02:53:11;12.03;;;4.90;;
68250;SDS011;55066;51.560;4.642;2023-04-24T02:55:36;12.53;;;5.20;;
68250;SDS011;55066;51.560;4.642;2023-04-24T02:58:02;8.77;;;4.30;;
68250;SDS011;55066;51.560;4.642;2023-04-24T03:00:27;12.30;;;4.30;;
68250;SDS011;55066;51.560;4.642;2023-04-24T03:02:53;9.57;;;4.03;;
68250;SDS011;55066;51.560;4.642;2023-04-24T03:05:18;10.05;;;4.10;;
68250;SDS011;55066;51.560;4.642;2023-04-24T03:07:44;10.68;;;4.45;;
68250;SDS011;55066;51.560;4.642;2023-04-24T03:10:10;9.02;;;4.07;;
68250;SDS011;55066;51.560;4.642;2023-04-24T03:12:36;8.97;;;4.13;;
68250;SDS011;55066;51.560;4.642;2023-04-24T03:15:01;9.80;;;4.00;;
68250;SDS011;55066;51.560;4.642;2023-04-24T03:17:27;10.90;;;4.55;;
68250;SDS011;55066;51.560;4.642;2023-04-24T03:19:52;8.70;;;4.33;;
68250;SDS011;55066;51.560;4.642;2023-04-24T03:22:18;8.50;;;4.27;;
68250;SDS011;55066;51.560;4.642;2023-04-24T03:24:43;7.05;;;3.20;;
68250;SDS011;55066;51.560;4.642;2023-04-24T03:27:09;10.00;;;4.00;;
68250;SDS011;55066;51.560;4.642;2023-04-24T03:29:49;7.22;;;3.30;;
68250;SDS011;55066;51.560;4.642;2023-04-24T03:32:19;7.20;;;2.78;;
68250;SDS011;55066;51.560;4.642;2023-04-24T03:34:46;5.38;;;2.70;;
68250;SDS011;55066;51.560;4.642;2023-04-24T03:37:13;6.90;;;2.83;;
68250;SDS011;55066;51.560;4.642;2023-04-24T03:39:43;7.72;;;2.50;;
68250;SDS011;55066;51.560;4.642;2023-04-24T03:42:09;8.05;;;2.45;;
68250;SDS011;55066;51.560;4.642;2023-04-24T03:44:45;4.07;;;2.08;;
68250;SDS011;55066;51.560;4.642;2023-04-24T03:47:10;3.50;;;1.67;;
68250;SDS011;55066;51.560;4.642;2023-04-24T03:49:36;4.00;;;1.70;;
68250;SDS011;55066;51.560;4.642;2023-04-24T03:52:03;5.22;;;1.52;;
68250;SDS011;55066;51.560;4.642;2023-04-24T03:54:29;4.13;;;1.27;;
68250;SDS011;55066;51.560;4.642;2023-04-24T03:56:54;6.65;;;1.10;;
68250;SDS011;55066;51.560;4.642;2023-04-24T03:59:20;2.80;;;1.30;;
68250;SDS011;55066;51.560;4.642;2023-04-24T04:01:53;5.00;;;1.10;;
68250;SDS011;55066;51.560;4.642;2023-04-24T04:04:19;4.37;;;1.50;;
68250;SDS011;55066;51.560;4.642;2023-04-24T04:06:45;4.40;;;1.17;;
68250;SDS011;55066;51.560;4.642;2023-04-24T04:09:12;3.43;;;1.07;;
68250;SDS011;55066;51.560;4.642;2023-04-24T04:11:37;3.10;;;1.48;;
68250;SDS011;55066;51.560;4.642;2023-04-24T04:14:04;3.35;;;1.33;;
68250;SDS011;55066;51.560;4.642;2023-04-24T04:16:31;6.20;;;1.93;;
68250;SDS011;55066;51.560;4.642;2023-04-24T04:19:01;2.28;;;0.88;;
68250;SDS011;55066;51.560;4.642;2023-04-24T04:21:28;6.60;;;1.42;;
68250;SDS011;55066;51.560;4.642;2023-04-24T04:24:03;9.18;;;2.05;;
68250;SDS011;55066;51.560;4.642;2023-04-24T04:26:35;5.10;;;2.53;;
68250;SDS011;55066;51.560;4.642;2023-04-24T04:29:03;7.20;;;2.40;;
68250;SDS011;55066;51.560;4.642;2023-04-24T04:31:29;7.78;;;2.78;;
68250;SDS011;55066;51.560;4.642;2023-04-24T04:33:58;7.22;;;2.30;;
68250;SDS011;55066;51.560;4.642;2023-04-24T04:36:24;9.45;;;2.75;;
68250;SDS011;55066;51.560;4.642;2023-04-24T04:38:58;9.27;;;2.67;;
68250;SDS011;55066;51.560;4.642;2023-04-24T04:41:50;8.07;;;3.70;;
68250;SDS011;55066;51.560;4.642;2023-04-24T04:44:18;11.35;;;3.28;;
68250;SDS011;55066;51.560;4.642;2023-04-24T04:46:44;9.80;;;3.57;;
68250;SDS011;55066;51.560;4.642;2023-04-24T04:49:30;6.55;;;2.92;;
68250;SDS011;55066;51.560;4.642;2023-04-24T04:51:57;8.73;;;2.75;;
68250;SDS011;55066;51.560;4.642;2023-04-24T04:54:28;8.13;;;3.28;;
68250;SDS011;55066;51.560;4.642;2023-04-24T04:56:55;10.23;;;3.00;;
68250;SDS011;55066;51.560;4.642;2023-04-24T04:59:22;6.57;;;2.43;;
68250;SDS011;55066;51.560;4.642;2023-04-24T05:01:53;7.90;;;3.13;;
68250;SDS011;55066;51.560;4.642;2023-04-24T05:04:20;8.55;;;2.83;;
68250;SDS011;55066;51.560;4.642;2023-04-24T05:06:45;9.85;;;3.25;;
68250;SDS011;55066;51.560;4.642;2023-04-24T05:09:12;11.48;;;3.65;;
68250;SDS011;55066;51.560;4.642;2023-04-24T05:12:05;8.93;;;2.78;;
68250;SDS011;55066;51.560;4.642;2023-04-24T05:14:35;8.70;;;3.83;;
68250;SDS011;55066;51.560;4.642;2023-04-24T05:17:11;11.48;;;3.83;;
68250;SDS011;55066;51.560;4.642;2023-04-24T05:19:36;9.60;;;4.03;;
68250;SDS011;55066;51.560;4.642;2023-04-24T05:22:04;12.35;;;5.47;;
68250;SDS011;55066;51.560;4.642;2023-04-24T05:24:33;14.15;;;5.50;;
68250;SDS011;55066;51.560;4.642;2023-04-24T05:27:07;17.00;;;5.70;;
68250;SDS011;55066;51.560;4.642;2023-04-24T05:29:37;12.33;;;5.17;;
68250;SDS011;55066;51.560;4.642;2023-04-24T05:32:04;14.23;;;5.28;;
68250;SDS011;55066;51.560;4.642;2023-04-24T05:34:30;15.18;;;4.28;;
68250;SDS011;55066;51.560;4.642;2023-04-24T05:36:56;15.15;;;5.57;;
68250;SDS011;55066;51.560;4.642;2023-04-24T05:39:22;8.60;;;2.93;;
68250;SDS011;55066;51.560;4.642;2023-04-24T05:41:47;13.13;;;5.07;;
68250;SDS011;55066;51.560;4.642;2023-04-24T05:44:13;12.10;;;4.38;;
68250;SDS011;55066;51.560;4.642;2023-04-24T05:46:38;12.63;;;5.37;;
68250;SDS011;55066;51.560;4.642;2023-04-24T05:49:04;10.87;;;4.40;;
68250;SDS011;55066;51.560;4.642;2023-04-24T05:51:31;19.30;;;5.25;;
68250;SDS011;55066;51.560;4.642;2023-04-24T05:53:58;9.80;;;3.75;;
68250;SDS011;55066;51.560;4.642;2023-04-24T05:56:44;11.52;;;5.13;;
68250;SDS011;55066;51.560;4.642;2023-04-24T06:02:19;14.65;;;5.57;;
68250;SDS011;55066;51.560;4.642;2023-04-24T06:04:45;17.23;;;5.75;;
68250;SDS011;55066;51.560;4.642;2023-04-24T06:07:10;9.80;;;4.43;;
68250;SDS011;55066;51.560;4.642;2023-04-24T06:09:37;15.98;;;5.30;;
68250;SDS011;55066;51.560;4.642;2023-04-24T06:12:03;16.30;;;6.50;;
68250;SDS011;55066;51.560;4.642;2023-04-24T06:14:43;10.07;;;4.68;;
68250;SDS011;55066;51.560;4.642;2023-04-24T06:17:18;15.27;;;5.50;;
68250;SDS011;55066;51.560;4.642;2023-04-24T06:19:45;18.65;;;6.00;;
68250;SDS011;55066;51.560;4.642;2023-04-24T06:22:10;17.50;;;5.33;;
68250;SDS011;55066;51.560;4.642;2023-04-24T06:24:36;16.52;;;5.70;;
68250;SDS011;55066;51.560;4.642;2023-04-24T06:27:01;16.73;;;6.00;;
68250;SDS011;55066;51.560;4.642;2023-04-24T06:29:27;15.68;;;4.75;;
68250;SDS011;55066;51.560;4.642;2023-04-24T06:31:53;16.07;;;5.00;;
68250;SDS011;55066;51.560;4.642;2023-04-24T06:34:18;15.27;;;4.03;;
68250;SDS011;55066;51.560;4.642;2023-04-24T06:36:44;12.57;;;3.90;;
68250;SDS011;55066;51.560;4.642;2023-04-24T06:39:11;14.75;;;4.15;;
68250;SDS011;55066;51.560;4.642;2023-04-24T06:41:37;18.37;;;4.97;;
68250;SDS011;55066;51.560;4.642;2023-04-24T06:44:02;11.83;;;3.33;;
68250;SDS011;55066;51.560;4.642;2023-04-24T06:46:28;10.40;;;4.00;;
68250;SDS011;55066;51.560;4.642;2023-04-24T06:48:54;13.97;;;4.07;;
68250;SDS011;55066;51.560;4.642;2023-04-24T06:51:22;15.57;;;4.93;;
68250;SDS011;55066;51.560;4.642;2023-04-24T06:53:54;12.52;;;4.30;;
68250;SDS011;55066;51.560;4.642;2023-04-24T06:56:21;17.90;;;3.70;;
68250;SDS011;55066;51.560;4.642;2023-04-24T06:58:46;17.40;;;4.45;;
68250;SDS011;55066;51.560;4.642;2023-04-24T07:01:12;15.85;;;3.92;;
68250;SDS011;55066;51.560;4.642;2023-04-24T07:03:38;22.23;;;4.45;;
68250;SDS011;55066;51.560;4.642;2023-04-24T07:06:04;15.13;;;4.77;;
68250;SDS011;55066;51.560;4.642;2023-04-24T07:08:30;11.13;;;3.47;;
68250;SDS011;55066;51.560;4.642;2023-04-24T07:10:58;19.15;;;4.68;;
68250;SDS011;55066;51.560;4.642;2023-04-24T07:13:24;22.15;;;4.85;;
68250;SDS011;55066;51.560;4.642;2023-04-24T07:15:50;17.00;;;3.67;;
68250;SDS011;55066;51.560;4.642;2023-04-24T07:18:17;15.82;;;3.50;;
68250;SDS011;55066;51.560;4.642;2023-04-24T07:20:43;10.43;;;3.33;;
68250;SDS011;55066;51.560;4.642;2023-04-24T07:23:09;10.90;;;2.63;;
68250;SDS011;55066;51.560;4.642;2023-04-24T07:25:35;12.37;;;3.07;;
68250;SDS011;55066;51.560;4.642;2023-04-24T07:28:00;8.47;;;2.17;;
68250;SDS011;55066;51.560;4.642;2023-04-24T07:30:26;13.73;;;3.30;;
68250;SDS011;55066;51.560;4.642;2023-04-24T07:32:54;9.15;;;2.17;;
68250;SDS011;55066;51.560;4.642;2023-04-24T07:35:20;9.70;;;2.35;;
68250;SDS011;55066;51.560;4.642;2023-04-24T07:37:46;9.63;;;2.83;;
68250;SDS011;55066;51.560;4.642;2023-04-24T07:40:12;14.97;;;3.00;;
68250;SDS011;55066;51.560;4.642;2023-04-24T07:42:38;13.38;;;2.80;;
68250;SDS011;55066;51.560;4.642;2023-04-24T07:45:04;9.38;;;2.45;;
68250;SDS011;55066;51.560;4.642;2023-04-24T07:47:30;10.77;;;2.33;;
68250;SDS011;55066;51.560;4.642;2023-04-24T07:49:56;11.60;;;2.63;;
68250;SDS011;55066;51.560;4.642;2023-04-24T07:52:23;13.35;;;2.28;;
68250;SDS011;55066;51.560;4.642;2023-04-24T07:54:49;9.18;;;2.25;;
68250;SDS011;55066;51.560;4.642;2023-04-24T07:57:15;14.18;;;3.03;;
68250;SDS011;55066;51.560;4.642;2023-04-24T07:59:41;13.02;;;2.65;;
68250;SDS011;55066;51.560;4.642;2023-04-24T08:02:06;8.02;;;2.30;;
68250;SDS011;55066;51.560;4.642;2023-04-24T08:04:32;14.15;;;2.90;;
68250;SDS011;55066;51.560;4.642;2023-04-24T08:06:58;12.65;;;2.45;;
68250;SDS011;55066;51.560;4.642;2023-04-24T08:09:23;10.30;;;2.35;;
68250;SDS011;55066;51.560;4.642;2023-04-24T08:11:49;12.60;;;2.57;;
68250;SDS011;55066;51.560;4.642;2023-04-24T08:14:14;11.50;;;2.00;;
68250;SDS011;55066;51.560;4.642;2023-04-24T08:16:40;13.02;;;2.50;;
68250;SDS011;55066;51.560;4.642;2023-04-24T08:19:06;10.20;;;2.10;;
68250;SDS011;55066;51.560;4.642;2023-04-24T08:21:35;11.40;;;2.50;;
68250;SDS011;55066;51.560;4.642;2023-04-24T08:24:00;15.13;;;2.47;;
68250;SDS011;55066;51.560;4.642;2023-04-24T08:26:30;8.80;;;1.80;;
68250;SDS011;55066;51.560;4.642;2023-04-24T08:28:55;14.27;;;2.97;;
68250;SDS011;55066;51.560;4.642;2023-04-24T08:31:21;20.90;;;3.03;;
68250;SDS011;55066;51.560;4.642;2023-04-24T08:33:47;12.38;;;2.08;;
68250;SDS011;55066;51.560;4.642;2023-04-24T08:36:13;14.07;;;2.67;;
68250;SDS011;55066;51.560;4.642;2023-04-24T08:38:38;7.72;;;2.33;;
68250;SDS011;55066;51.560;4.642;2023-04-24T08:41:04;13.03;;;2.30;;
68250;SDS011;55066;51.560;4.642;2023-04-24T08:43:30;9.52;;;2.17;;
68250;SDS011;55066;51.560;4.642;2023-04-24T08:45:59;9.95;;;2.38;;
68250;SDS011;55066;51.560;4.642;2023-04-24T08:48:25;6.75;;;1.38;;
68250;SDS011;55066;51.560;4.642;2023-04-24T08:50:51;9.57;;;1.77;;
68250;SDS011;55066;51.560;4.642;2023-04-24T08:53:17;6.80;;;1.95;;
68250;SDS011;55066;51.560;4.642;2023-04-24T08:55:43;10.18;;;1.95;;
68250;SDS011;55066;51.560;4.642;2023-04-24T08:58:15;9.10;;;2.10;;
68250;SDS011;55066;51.560;4.642;2023-04-24T09:00:41;6.90;;;1.40;;
68250;SDS011;55066;51.560;4.642;2023-04-24T09:03:11;6.30;;;1.73;;
68250;SDS011;55066;51.560;4.642;2023-04-24T09:05:41;9.48;;;1.90;;
68250;SDS011;55066;51.560;4.642;2023-04-24T09:08:14;5.43;;;1.52;;
68250;SDS011;55066;51.560;4.642;2023-04-24T09:10:45;6.13;;;1.50;;
68250;SDS011;55066;51.560;4.642;2023-04-24T09:13:12;9.38;;;1.92;;
68250;SDS011;55066;51.560;4.642;2023-04-24T09:15:38;9.82;;;1.63;;
68250;SDS011;55066;51.560;4.642;2023-04-24T09:18:05;8.25;;;1.90;;
68250;SDS011;55066;51.560;4.642;2023-04-24T09:20:34;9.23;;;2.15;;
68250;SDS011;55066;51.560;4.642;2023-04-24T09:23:01;11.90;;;2.53;;
68250;SDS011;55066;51.560;4.642;2023-04-24T09:25:33;6.95;;;1.80;;
68250;SDS011;55066;51.560;4.642;2023-04-24T09:28:02;6.78;;;1.48;;
68250;SDS011;55066;51.560;4.642;2023-04-24T09:30:28;4.47;;;1.20;;
68250;SDS011;55066;51.560;4.642;2023-04-24T09:33:12;6.53;;;1.25;;
68250;SDS011;55066;51.560;4.642;2023-04-24T09:35:42;4.30;;;0.95;;
68250;SDS011;55066;51.560;4.642;2023-04-24T09:38:15;4.70;;;1.00;;
68250;SDS011;55066;51.560;4.642;2023-04-24T09:40:40;4.30;;;1.23;;
68250;SDS011;55066;51.560;4.642;2023-04-24T09:43:09;5.25;;;1.30;;
68250;SDS011;55066;51.560;4.642;2023-04-24T09:45:36;4.77;;;1.67;;
68250;SDS011;55066;51.560;4.642;2023-04-24T09:48:03;8.60;;;1.40;;
68250;SDS011;55066;51.560;4.642;2023-04-24T09:50:31;7.00;;;1.33;;
68250;SDS011;55066;51.560;4.642;2023-04-24T09:53:01;7.22;;;1.30;;
68250;SDS011;55066;51.560;4.642;2023-04-24T09:55:28;5.35;;;1.30;;
68250;SDS011;55066;51.560;4.642;2023-04-24T10:00:25;4.35;;;1.13;;
68250;SDS011;55066;51.560;4.642;2023-04-24T10:02:55;7.63;;;1.50;;
68250;SDS011;55066;51.560;4.642;2023-04-24T10:05:24;5.40;;;1.20;;
68250;SDS011;55066;51.560;4.642;2023-04-24T10:07:57;5.28;;;1.40;;
68250;SDS011;55066;51.560;4.642;2023-04-24T10:10:27;5.30;;;0.82;;
68250;SDS011;55066;51.560;4.642;2023-04-24T10:12:53;3.60;;;0.90;;
68250;SDS011;55066;51.560;4.642;2023-04-24T10:15:20;5.70;;;1.30;;
68250;SDS011;55066;51.560;4.642;2023-04-24T10:17:49;5.38;;;1.00;;
68250;SDS011;55066;51.560;4.642;2023-04-24T10:20:23;4.75;;;0.80;;
68250;SDS011;55066;51.560;4.642;2023-04-24T10:22:54;5.22;;;0.90;;
68250;SDS011;55066;51.560;4.642;2023-04-24T10:25:25;5.75;;;0.95;;
68250;SDS011;55066;51.560;4.642;2023-04-24T10:27:55;6.20;;;0.90;;
68250;SDS011;55066;51.560;4.642;2023-04-24T10:30:25;4.93;;;0.80;;
68250;SDS011;55066;51.560;4.642;2023-04-24T10:33:02;3.92;;;0.68;;
68250;SDS011;55066;51.560;4.642;2023-04-24T10:35:31;6.95;;;0.82;;
68250;SDS011;55066;51.560;4.642;2023-04-24T10:38:14;2.47;;;0.80;;
68250;SDS011;55066;51.560;4.642;2023-04-24T10:40:43;4.23;;;0.63;;
68250;SDS011;55066;51.560;4.642;2023-04-24T10:43:09;3.35;;;0.70;;
68250;SDS011;55066;51.560;4.642;2023-04-24T10:45:36;3.10;;;0.80;;
68250;SDS011;55066;51.560;4.642;2023-04-24T10:48:09;4.20;;;0.93;;
68250;SDS011;55066;51.560;4.642;2023-04-24T10:50:45;6.47;;;0.70;;
68250;SDS011;55066;51.560;4.642;2023-04-24T10:53:21;4.10;;;0.60;;
68250;SDS011;55066;51.560;4.642;2023-04-24T10:55:52;2.50;;;0.82;;
68250;SDS011;55066;51.560;4.642;2023-04-24T10:58:23;4.43;;;0.90;;
68250;SDS011;55066;51.560;4.642;2023-04-24T11:00:57;4.82;;;1.00;;
68250;SDS011;55066;51.560;4.642;2023-04-24T11:03:24;3.55;;;0.85;;
68250;SDS011;55066;51.560;4.642;2023-04-24T11:05:51;4.28;;;0.65;;
68250;SDS011;55066;51.560;4.642;2023-04-24T11:08:32;5.35;;;0.80;;
68250;SDS011;55066;51.560;4.642;2023-04-24T11:11:13;4.20;;;0.80;;
68250;SDS011;55066;51.560;4.642;2023-04-24T11:19:07;4.85;;;0.88;;
68250;SDS011;55066;51.560;4.642;2023-04-24T11:21:38;2.25;;;0.60;;
68250;SDS011;55066;51.560;4.642;2023-04-24T11:24:24;2.35;;;0.50;;
68250;SDS011;55066;51.560;4.642;2023-04-24T11:26:56;4.43;;;0.90;;
68250;SDS011;55066;51.560;4.642;2023-04-24T11:34:52;4.80;;;1.00;;
68250;SDS011;55066;51.560;4.642;2023-04-24T11:37:19;3.70;;;0.82;;
68250;SDS011;55066;51.560;4.642;2023-04-24T11:39:50;3.17;;;0.70;;
68250;SDS011;55066;51.560;4.642;2023-04-24T11:42:16;5.35;;;0.90;;
68250;SDS011;55066;51.560;4.642;2023-04-24T11:44:43;5.53;;;1.00;;
68250;SDS011;55066;51.560;4.642;2023-04-24T11:47:08;2.72;;;0.73;;
68250;SDS011;55066;51.560;4.642;2023-04-24T11:49:36;3.73;;;0.90;;
68250;SDS011;55066;51.560;4.642;2023-04-24T11:52:02;4.57;;;0.90;;
68250;SDS011;55066;51.560;4.642;2023-04-24T11:54:28;3.40;;;0.80;;
68250;SDS011;55066;51.560;4.642;2023-04-24T11:56:53;3.60;;;1.17;;
68250;SDS011;55066;51.560;4.642;2023-04-24T11:59:19;3.60;;;1.33;;
68250;SDS011;55066;51.560;4.642;2023-04-24T12:01:45;5.63;;;1.20;;
68250;SDS011;55066;51.560;4.642;2023-04-24T12:04:11;4.25;;;1.05;;
68250;SDS011;55066;51.560;4.642;2023-04-24T12:06:37;4.93;;;1.17;;
68250;SDS011;55066;51.560;4.642;2023-04-24T12:09:03;2.17;;;0.93;;
68250;SDS011;55066;51.560;4.642;2023-04-24T12:11:29;4.43;;;1.60;;
68250;SDS011;55066;51.560;4.642;2023-04-24T12:13:54;3.07;;;1.00;;
68250;SDS011;55066;51.560;4.642;2023-04-24T12:16:20;4.70;;;0.87;;
68250;SDS011;55066;51.560;4.642;2023-04-24T12:18:45;6.20;;;1.33;;
68250;SDS011;55066;51.560;4.642;2023-04-24T12:21:14;4.93;;;1.30;;
68250;SDS011;55066;51.560;4.642;2023-04-24T12:23:42;4.35;;;1.58;;
68250;SDS011;55066;51.560;4.642;2023-04-24T12:26:09;5.00;;;1.70;;
68250;SDS011;55066;51.560;4.642;2023-04-24T12:28:36;5.90;;;1.80;;
68250;SDS011;55066;51.560;4.642;2023-04-24T12:31:02;3.10;;;1.05;;
68250;SDS011;55066;51.560;4.642;2023-04-24T12:33:34;9.30;;;1.88;;
68250;SDS011;55066;51.560;4.642;2023-04-24T12:36:00;4.87;;;1.80;;
68250;SDS011;55066;51.560;4.642;2023-04-24T12:38:27;6.35;;;1.50;;
68250;SDS011;55066;51.560;4.642;2023-04-24T12:41:04;6.07;;;1.92;;
68250;SDS011;55066;51.560;4.642;2023-04-24T12:43:31;5.72;;;2.08;;
68250;SDS011;55066;51.560;4.642;2023-04-24T12:45:57;5.93;;;1.87;;
68250;SDS011;55066;51.560;4.642;2023-04-24T12:48:24;7.30;;;2.20;;
68250;SDS011;55066;51.560;4.642;2023-04-24T12:50:50;7.28;;;1.90;;
68250;SDS011;55066;51.560;4.642;2023-04-24T12:53:15;8.07;;;2.10;;
68250;SDS011;55066;51.560;4.642;2023-04-24T12:55:41;6.30;;;2.20;;
68250;SDS011;55066;51.560;4.642;2023-04-24T12:58:07;5.85;;;1.63;;
68250;SDS011;55066;51.560;4.642;2023-04-24T13:00:32;5.13;;;1.60;;
68250;SDS011;55066;51.560;4.642;2023-04-24T13:02:58;7.77;;;1.70;;
68250;SDS011;55066;51.560;4.642;2023-04-24T13:05:23;5.40;;;1.38;;
68250;SDS011;55066;51.560;4.642;2023-04-24T13:07:49;5.53;;;1.60;;
68250;SDS011;55066;51.560;4.642;2023-04-24T13:10:14;6.60;;;1.70;;
68250;SDS011;55066;51.560;4.642;2023-04-24T13:12:40;9.10;;;1.90;;
68250;SDS011;55066;51.560;4.642;2023-04-24T13:15:06;6.75;;;1.30;;
68250;SDS011;55066;51.560;4.642;2023-04-24T13:17:32;5.82;;;1.25;;
68250;SDS011;55066;51.560;4.642;2023-04-24T13:19:58;5.20;;;1.27;;
68250;SDS011;55066;51.560;4.642;2023-04-24T13:22:23;7.00;;;1.20;;
68250;SDS011;55066;51.560;4.642;2023-04-24T13:24:50;7.05;;;1.25;;
68250;SDS011;55066;51.560;4.642;2023-04-24T13:27:16;6.37;;;1.60;;
68250;SDS011;55066;51.560;4.642;2023-04-24T13:29:42;4.78;;;1.55;;
68250;SDS011;55066;51.560;4.642;2023-04-24T13:32:07;4.30;;;1.10;;
68250;SDS011;55066;51.560;4.642;2023-04-24T13:34:33;5.82;;;1.58;;
68250;SDS011;55066;51.560;4.642;2023-04-24T13:37:02;5.68;;;1.40;;
68250;SDS011;55066;51.560;4.642;2023-04-24T13:39:28;5.55;;;0.98;;
68250;SDS011;55066;51.560;4.642;2023-04-24T13:41:54;4.67;;;1.20;;
68250;SDS011;55066;51.560;4.642;2023-04-24T13:44:20;5.13;;;1.42;;
68250;SDS011;55066;51.560;4.642;2023-04-24T13:46:48;4.57;;;1.13;;
68250;SDS011;55066;51.560;4.642;2023-04-24T13:49:15;5.85;;;1.90;;
68250;SDS011;55066;51.560;4.642;2023-04-24T13:51:42;5.78;;;1.60;;
68250;SDS011;55066;51.560;4.642;2023-04-24T13:54:07;5.10;;;1.02;;
68250;SDS011;55066;51.560;4.642;2023-04-24T13:56:33;5.97;;;1.27;;
68250;SDS011;55066;51.560;4.642;2023-04-24T13:58:59;4.43;;;1.30;;
68250;SDS011;55066;51.560;4.642;2023-04-24T14:01:24;5.20;;;1.20;;
68250;SDS011;55066;51.560;4.642;2023-04-24T14:03:50;5.00;;;1.30;;
68250;SDS011;55066;51.560;4.642;2023-04-24T14:06:16;6.18;;;1.30;;
68250;SDS011;55066;51.560;4.642;2023-04-24T14:08:43;4.82;;;0.98;;
68250;SDS011;55066;51.560;4.642;2023-04-24T14:11:08;6.68;;;1.70;;
68250;SDS011;55066;51.560;4.642;2023-04-24T14:13:34;4.67;;;1.33;;
68250;SDS011;55066;51.560;4.642;2023-04-24T14:16:00;8.40;;;1.50;;
68250;SDS011;55066;51.560;4.642;2023-04-24T14:18:26;4.17;;;1.20;;
68250;SDS011;55066;51.560;4.642;2023-04-24T14:20:51;4.37;;;1.17;;
68250;SDS011;55066;51.560;4.642;2023-04-24T14:23:18;4.70;;;1.17;;
68250;SDS011;55066;51.560;4.642;2023-04-24T14:25:43;4.93;;;1.07;;
68250;SDS011;55066;51.560;4.642;2023-04-24T14:28:09;2.83;;;1.20;;
68250;SDS011;55066;51.560;4.642;2023-04-24T14:30:34;6.30;;;1.10;;
68250;SDS011;55066;51.560;4.642;2023-04-24T14:33:02;4.20;;;1.23;;
68250;SDS011;55066;51.560;4.642;2023-04-24T14:35:31;4.47;;;1.33;;
68250;SDS011;55066;51.560;4.642;2023-04-24T14:37:58;7.45;;;2.15;;
68250;SDS011;55066;51.560;4.642;2023-04-24T14:40:23;4.73;;;1.60;;
68250;SDS011;55066;51.560;4.642;2023-04-24T14:42:49;6.00;;;1.40;;
68250;SDS011;55066;51.560;4.642;2023-04-24T14:45:15;5.90;;;1.50;;
68250;SDS011;55066;51.560;4.642;2023-04-24T14:47:41;6.07;;;1.65;;
68250;SDS011;55066;51.560;4.642;2023-04-24T14:50:06;4.88;;;1.50;;
68250;SDS011;55066;51.560;4.642;2023-04-24T14:52:33;6.30;;;1.52;;
68250;SDS011;55066;51.560;4.642;2023-04-24T14:54:58;9.13;;;1.67;;
68250;SDS011;55066;51.560;4.642;2023-04-24T14:57:24;6.90;;;2.03;;
68250;SDS011;55066;51.560;4.642;2023-04-24T14:59:50;3.92;;;1.70;;